Portada
METAR-TAF:

METAR-TAF

Aeroports :

Sint Maarten, Antilles Neerlandeses

latitud: 18-03N, longitud: 063-07W, altitud: 4 m

Observació

L'informe es va fer fa 55 minuts, a les 08:00 UTC
Vent 8 kt del Est/Nord-Est, variant entre Nord/Nord-Est i Est
Temperatura 27°C
Humitat 79%
Pressió 1017 hPa
Visibilitat 10 km o més
Escasses núvols a una alçada de 1800 ft

METAR: TNCM 060800Z 06008KT 030V090 9999 FEW018 27/23 Q1017

Hora: 04:55 (08:55 UTC)

Pronòstic

L'informe es va fer fa 2 hores i 55 minuts, a les 06:00 UTC
Pronòstic vàlid del 06 a les 06 UTC al 07 a les 06 UTC
Vent 9 kt del Est/Nord-Est
Visibilitat: 10 km
Núvols disperses a una alçada de 1800 ft
Núvols disperses a una alçada de 3500 ft
xàfecs en les proximitats
A partir de les 06 a les 1400 UTC
Vent 14 kt del Est
Visibilitat: 10 km
Núvols disperses a una alçada de 2200 ft

TAF: TNCM 060600Z 0606/0706 06009KT P6SM VCSH SCT018 SCT035 FM061400 10014KT P6SM SCT022

Observacions i pronòstics meteorològics de més de 4000 aeroports (METAR i TAF).

Les estacions disponibles són els punts grocs i vermells al mapa.

Posi el ratolí al punt desitjat per veure el nom de l'estació.

Feu clic per veure les observacions i els pronòstics meteorològics.

Per canviar el mapa: feu clic els botons verds amb una creu de color negre per apropar; al botó verd amb un guió per allunyar la imatge; o en les fletxes verdes per a mapes adjacents.


METAR-TAF: